Time;durP1;ratioP1;P1;durP2;ratioP2;P2;SDS_P1;SDS_P2;PMS_P1;PMS_P2;Temp;Humidity;BMP_temperature;BMP_pressure;BME280_temperature;BME280_humidity;BME280_pressure;Samples;Min_cycle;Max_cycle;Signal;HPM_P1;HPM_P2
2022/08/09 00:02:09;;;;;;;2.83;1.75;;;16.90;99.90;;;;;;5044972;28;20040;-78
2022/08/09 00:04:35;;;;;;;3.17;1.92;;;16.90;99.90;;;;;;5080265;28;20094;-78
2022/08/09 00:07:01;;;;;;;2.63;1.50;;;16.90;99.90;;;;;;5080109;28;20463;-78
2022/08/09 00:09:26;;;;;;;7.55;1.50;;;16.90;99.90;;;;;;5078731;28;20075;-78
2022/08/09 00:11:52;;;;;;;1.42;1.33;;;16.90;99.90;;;;;;5080049;28;20071;-78
2022/08/09 00:14:18;;;;;;;1.63;1.38;;;16.90;99.90;;;;;;5080073;28;20315;-78
2022/08/09 00:16:44;;;;;;;1.83;1.73;;;16.90;99.90;;;;;;5079696;28;20298;-78
2022/08/09 00:19:10;;;;;;;3.72;1.58;;;16.80;99.90;;;;;;5045228;28;20067;-77
2022/08/09 00:21:37;;;;;;;2.10;1.90;;;16.80;99.90;;;;;;5080038;28;20506;-78
2022/08/09 00:24:03;;;;;;;2.50;1.70;;;16.80;99.90;;;;;;5078413;28;20686;-78
2022/08/09 00:26:29;;;;;;;7.60;2.03;;;16.70;99.90;;;;;;5061410;28;21110;-78
2022/08/09 00:28:56;;;;;;;4.70;2.10;;;16.70;99.90;;;;;;5061770;28;20486;-78
2022/08/09 00:31:23;;;;;;;1.80;1.70;;;16.70;99.90;;;;;;5079305;28;20565;-78
2022/08/09 00:33:51;;;;;;;4.13;2.33;;;16.60;99.90;;;;;;5079706;28;20083;-78
2022/08/09 00:36:16;;;;;;;2.33;1.40;;;16.60;99.90;;;;;;5079372;28;20044;-78
2022/08/09 00:38:43;;;;;;;2.97;1.65;;;16.60;99.90;;;;;;5077925;28;20051;-78
2022/08/09 00:41:09;;;;;;;2.30;1.40;;;16.60;99.90;;;;;;5079622;28;20498;-78
2022/08/09 00:43:36;;;;;;;2.90;1.98;;;16.50;99.90;;;;;;5079815;28;20051;-78
2022/08/09 00:46:05;;;;;;;4.13;2.03;;;16.50;99.90;;;;;;5078139;28;20052;-78
2022/08/09 00:48:31;;;;;;;2.25;1.65;;;16.50;99.90;;;;;;5079041;28;20379;-78
2022/08/09 00:51:02;;;;;;;2.90;1.60;;;16.50;99.90;;;;;;5079020;28;20052;-78
2022/08/09 00:53:28;;;;;;;2.58;2.17;;;16.50;99.90;;;;;;5079115;28;20066;-77
2022/08/09 00:55:53;;;;;;;3.83;1.83;;;16.40;99.90;;;;;;5059957;28;20161;-78
2022/08/09 00:58:19;;;;;;;2.08;1.80;;;16.40;99.90;;;;;;5079009;28;20036;-78
2022/08/09 01:00:45;;;;;;;4.43;2.00;;;16.40;99.90;;;;;;5079108;28;20040;-78
2022/08/09 01:03:40;;;;;;;7.47;2.25;;;16.40;99.90;;;;;;5079050;28;20036;-78
2022/08/09 01:06:15;;;;;;;2.28;1.77;;;16.40;99.90;;;;;;5078571;28;20047;-77
2022/08/09 01:08:57;;;;;;;2.33;2.00;;;16.30;99.90;;;;;;5078250;28;20040;-78
2022/08/09 01:11:51;;;;;;;2.25;2.03;;;16.30;99.90;;;;;;5060455;28;20044;-77
2022/08/09 01:14:27;;;;;;;2.53;1.75;;;16.30;99.90;;;;;;5032099;28;20044;-78
2022/08/09 01:17:00;;;;;;;5.93;1.42;;;16.30;99.90;;;;;;5078759;28;20072;-78
2022/08/09 01:19:49;;;;;;;2.35;2.15;;;16.20;99.90;;;;;;5078879;28;20048;-77
2022/08/09 01:22:37;;;;;;;1.92;1.83;;;16.20;99.90;;;;;;5078023;28;20058;-78
2022/08/09 01:25:02;;;;;;;5.05;2.35;;;16.20;99.90;;;;;;5077767;28;20148;-78
2022/08/09 01:27:30;;;;;;;2.03;1.52;;;16.20;99.90;;;;;;5059979;28;20138;-77
2022/08/09 01:29:59;;;;;;;2.83;1.70;;;16.20;99.90;;;;;;5078721;28;20028;-78
2022/08/09 01:32:40;;;;;;;1.60;1.50;;;16.20;99.90;;;;;;5078460;28;20465;-77
2022/08/09 01:35:19;;;;;;;2.30;2.08;;;16.20;99.90;;;;;;5060361;28;20039;-78
2022/08/09 01:37:47;;;;;;;2.03;1.85;;;16.20;99.90;;;;;;5060479;28;20048;-78
2022/08/09 01:40:15;;;;;;;3.58;2.05;;;16.20;99.90;;;;;;5077399;28;20502;-78
2022/08/09 01:42:42;;;;;;;2.13;1.77;;;16.20;99.90;;;;;;5060490;28;20080;-78
2022/08/09 01:45:08;;;;;;;2.63;2.03;;;16.20;99.90;;;;;;5060375;28;20044;-78
2022/08/09 01:47:35;;;;;;;2.03;1.83;;;16.20;99.90;;;;;;5078356;28;20084;-77
2022/08/09 01:50:03;;;;;;;2.20;2.00;;;16.20;99.90;;;;;;5060791;28;20063;-78
2022/08/09 01:52:29;;;;;;;1.95;1.65;;;16.20;99.90;;;;;;5078100;28;20406;-78
2022/08/09 01:54:56;;;;;;;2.55;1.80;;;16.10;99.90;;;;;;5077790;28;20036;-77
2022/08/09 01:57:36;;;;;;;2.83;2.22;;;16.00;99.90;;;;;;5060674;28;20138;-77
2022/08/09 02:00:05;;;;;;;1.98;1.42;;;16.10;99.90;;;;;;5081757;28;20205;-78
2022/08/09 02:02:34;;;;;;;2.90;2.38;;;16.00;99.90;;;;;;5082443;28;20457;-77
2022/08/09 02:05:04;;;;;;;2.38;2.13;;;16.00;99.90;;;;;;5082199;28;20359;-77
2022/08/09 02:07:32;;;;;;;1.98;1.77;;;16.00;99.90;;;;;;5082503;28;20097;-78
2022/08/09 02:10:03;;;;;;;2.78;1.75;;;16.00;99.90;;;;;;5081373;28;20417;-78
2022/08/09 02:12:31;;;;;;;3.00;2.10;;;15.90;99.90;;;;;;5081566;28;20083;-77
2022/08/09 02:14:58;;;;;;;1.67;1.55;;;16.00;99.90;;;;;;5063857;28;20044;-77
2022/08/09 02:17:28;;;;;;;2.63;1.98;;;15.90;99.90;;;;;;5064166;28;20052;-78
2022/08/09 02:19:54;;;;;;;2.95;2.38;;;15.90;99.90;;;;;;5082482;28;20040;-77
2022/08/09 02:22:25;;;;;;;3.70;2.25;;;15.80;99.90;;;;;;5064337;28;20055;-77
2022/08/09 02:24:55;;;;;;;2.15;1.75;;;15.90;99.90;;;;;;5080853;28;20040;-78
2022/08/09 02:27:25;;;;;;;2.20;1.80;;;15.80;99.90;;;;;;5081721;28;20040;-77
2022/08/09 02:29:54;;;;;;;3.55;2.58;;;15.80;99.90;;;;;;5081954;28;20496;-78
2022/08/09 02:32:22;;;;;;;3.13;2.83;;;15.80;99.90;;;;;;5081191;28;20551;-78
2022/08/09 02:34:54;;;;;;;4.18;3.05;;;15.70;99.90;;;;;;5063490;28;20058;-78
2022/08/09 02:37:21;;;;;;;1.70;1.60;;;15.70;99.90;;;;;;5081046;28;20119;-77
2022/08/09 02:39:53;;;;;;;2.80;1.80;;;15.70;99.90;;;;;;5063244;28;20063;-77
2022/08/09 02:42:31;;;;;;;2.17;1.75;;;15.70;99.90;;;;;;5082001;28;20094;-77
2022/08/09 02:45:06;;;;;;;3.65;1.73;;;15.70;99.90;;;;;;5081792;28;20119;-78
2022/08/09 02:47:35;;;;;;;2.33;2.13;;;15.70;99.90;;;;;;5081522;28;20048;-78
2022/08/09 02:50:08;;;;;;;4.35;2.17;;;15.60;99.90;;;;;;5081435;28;20089;-78
2022/08/09 02:52:48;;;;;;;2.80;2.47;;;15.60;99.90;;;;;;5063322;28;20074;-77
2022/08/09 02:55:16;;;;;;;2.03;1.83;;;15.60;99.90;;;;;;5080884;28;20291;-77
2022/08/09 02:57:43;;;;;;;2.15;1.67;;;15.60;99.90;;;;;;5063614;28;20043;-77
2022/08/09 03:00:10;;;;;;;2.10;1.73;;;15.50;99.90;;;;;;5063061;28;20032;-77
2022/08/09 03:02:56;;;;;;;1.55;1.40;;;15.50;99.90;;;;;;5081298;28;20155;-77
2022/08/09 03:05:23;;;;;;;2.28;2.08;;;15.50;99.90;;;;;;5080794;28;20663;-77
2022/08/09 03:07:50;;;;;;;2.80;1.75;;;15.50;99.90;;;;;;5063111;28;20051;-77
2022/08/09 03:10:16;;;;;;;1.65;1.55;;;15.50;99.90;;;;;;5079626;28;20563;-77
2022/08/09 03:12:43;;;;;;;2.30;2.10;;;15.50;99.90;;;;;;5080707;28;20048;-78
2022/08/09 03:15:11;;;;;;;1.42;1.17;;;15.50;99.90;;;;;;5063211;28;20048;-77
2022/08/09 03:17:37;;;;;;;2.15;1.90;;;15.50;99.90;;;;;;5081277;28;20048;-78
2022/08/09 03:20:05;;;;;;;3.95;2.72;;;15.50;99.90;;;;;;5081134;28;20040;-77
2022/08/09 03:22:37;;;;;;;2.95;1.83;;;15.40;99.90;;;;;;5081059;28;20448;-77
2022/08/09 03:25:03;;;;;;;3.08;2.00;;;15.40;99.90;;;;;;5080132;28;20062;-77
2022/08/09 03:27:31;;;;;;;2.80;1.88;;;15.40;99.90;;;;;;5080022;28;20048;-78
2022/08/09 03:29:57;;;;;;;5.65;2.42;;;15.40;99.90;;;;;;5062656;28;20055;-78
2022/08/09 03:32:23;;;;;;;3.42;2.45;;;15.40;99.90;;;;;;5080830;28;20466;-77
2022/08/09 03:34:49;;;;;;;2.85;2.15;;;15.40;99.90;;;;;;5080549;28;20371;-78
2022/08/09 03:37:15;;;;;;;3.30;2.55;;;15.40;99.90;;;;;;5081060;28;20043;-78
2022/08/09 03:39:41;;;;;;;4.40;2.70;;;15.30;99.90;;;;;;5079791;28;20098;-77
2022/08/09 03:42:06;;;;;;;2.92;2.63;;;15.30;99.90;;;;;;5080152;28;20452;-78
2022/08/09 03:44:32;;;;;;;3.40;1.73;;;15.30;99.90;;;;;;5062660;28;20486;-78
2022/08/09 03:46:57;;;;;;;1.92;1.75;;;15.30;99.90;;;;;;5080372;28;20139;-77
2022/08/09 03:49:26;;;;;;;3.65;2.03;;;15.20;99.90;;;;;;5079991;28;20036;-78
2022/08/09 03:51:56;;;;;;;1.85;1.75;;;15.30;99.90;;;;;;5062109;28;20040;-78
2022/08/09 03:54:25;;;;;;;2.70;2.20;;;15.30;99.90;;;;;;5079020;28;20047;-77
2022/08/09 03:56:52;;;;;;;2.70;1.85;;;15.30;99.90;;;;;;5080207;28;20032;-77
2022/08/09 03:59:18;;;;;;;3.10;1.60;;;15.20;99.90;;;;;;5062386;28;20044;-77
2022/08/09 04:01:44;;;;;;;4.85;2.67;;;15.20;99.90;;;;;;5079795;28;20070;-77
2022/08/09 04:04:11;;;;;;;4.75;1.65;;;15.20;99.90;;;;;;5079976;28;20044;-77
2022/08/09 04:06:37;;;;;;;3.05;1.85;;;15.30;99.90;;;;;;5080289;28;20582;-78
2022/08/09 04:09:05;;;;;;;5.55;2.28;;;15.20;99.90;;;;;;5078923;28;20536;-77
2022/08/09 04:11:45;;;;;;;2.33;1.85;;;15.20;99.90;;;;;;5080190;28;20113;-78
2022/08/09 04:14:11;;;;;;;4.65;1.88;;;15.20;99.90;;;;;;5079458;28;20596;-78
2022/08/09 04:16:37;;;;;;;3.15;2.30;;;15.20;99.90;;;;;;5080132;28;20044;-78
2022/08/09 04:19:03;;;;;;;7.70;2.58;;;15.20;99.90;;;;;;5079556;28;20086;-78
2022/08/09 04:21:28;;;;;;;7.15;2.63;;;15.20;99.90;;;;;;5079031;28;20048;-78
2022/08/09 04:23:54;;;;;;;2.45;2.00;;;15.20;99.90;;;;;;5078836;28;20122;-77
2022/08/09 04:26:20;;;;;;;3.80;2.78;;;15.30;99.90;;;;;;5079806;28;20422;-77
2022/08/09 04:28:45;;;;;;;5.53;3.15;;;15.20;99.90;;;;;;5079476;28;20071;-77
2022/08/09 04:31:11;;;;;;;11.23;2.88;;;15.20;99.90;;;;;;5079436;28;20040;-78
2022/08/09 04:33:37;;;;;;;3.63;2.92;;;15.20;99.90;;;;;;5061341;28;20039;-77
2022/08/09 04:36:03;;;;;;;4.82;2.67;;;15.20;99.90;;;;;;5078997;28;20039;-77
2022/08/09 04:38:29;;;;;;;3.17;2.63;;;15.30;99.90;;;;;;5078553;28;20450;-77
2022/08/09 04:40:56;;;;;;;3.58;2.83;;;15.30;99.90;;;;;;5079190;28;20036;-77
2022/08/09 04:43:22;;;;;;;2.55;2.35;;;15.20;99.90;;;;;;5061330;28;20095;-78
2022/08/09 04:45:48;;;;;;;4.40;3.05;;;15.30;99.90;;;;;;5061521;28;20432;-77
2022/08/09 04:48:13;;;;;;;3.30;2.83;;;15.30;99.90;;;;;;5060918;28;20080;-77
2022/08/09 04:50:41;;;;;;;3.78;2.35;;;15.30;99.90;;;;;;5078738;28;20074;-78
2022/08/09 04:53:07;;;;;;;4.32;2.72;;;15.30;99.90;;;;;;5078148;28;20115;-78
2022/08/09 04:55:33;;;;;;;4.78;2.63;;;15.30;99.90;;;;;;5079092;28;20100;-78
2022/08/09 04:57:59;;;;;;;5.45;2.60;;;15.30;99.90;;;;;;5078753;28;20044;-77
2022/08/09 05:00:25;;;;;;;2.58;2.38;;;15.30;99.90;;;;;;5079234;28;20440;-77
2022/08/09 05:02:50;;;;;;;3.75;2.88;;;15.40;99.90;;;;;;5079133;28;20043;-78
2022/08/09 05:05:16;;;;;;;5.07;3.03;;;15.40;99.90;;;;;;5078785;28;20305;-78
2022/08/09 05:07:42;;;;;;;4.47;2.45;;;15.50;99.90;;;;;;5078773;28;20044;-77
2022/08/09 05:10:08;;;;;;;4.40;2.75;;;15.50;99.90;;;;;;5078231;28;20040;-78
2022/08/09 05:12:33;;;;;;;5.22;2.38;;;15.50;99.90;;;;;;5078064;28;20052;-78
2022/08/09 05:14:59;;;;;;;4.45;3.17;;;15.50;99.90;;;;;;5060432;28;20052;-78
2022/08/09 05:17:25;;;;;;;3.97;2.75;;;15.50;99.90;;;;;;5079166;28;20402;-77
2022/08/09 05:19:52;;;;;;;3.40;2.65;;;15.50;99.90;;;;;;5078349;28;20067;-78
2022/08/09 05:22:17;;;;;;;2.50;2.30;;;15.50;99.90;;;;;;5078322;28;20486;-78
2022/08/09 05:24:43;;;;;;;5.13;3.58;;;15.60;99.90;;;;;;5077490;28;20119;-78
2022/08/09 05:27:09;;;;;;;5.68;2.85;;;15.70;99.90;;;;;;5077804;28;20048;-78
2022/08/09 05:29:34;;;;;;;3.90;2.58;;;15.70;99.90;;;;;;5078519;28;20151;-78
2022/08/09 05:32:00;;;;;;;3.67;2.55;;;15.70;99.90;;;;;;5078078;28;20391;-78
2022/08/09 05:34:30;;;;;;;3.00;2.70;;;15.80;99.90;;;;;;5078073;28;20036;-78
2022/08/09 05:36:57;;;;;;;4.22;2.95;;;15.80;99.90;;;;;;5078740;28;20490;-77
2022/08/09 05:39:23;;;;;;;2.70;2.42;;;15.90;99.90;;;;;;5077649;28;20514;-78
2022/08/09 05:41:49;;;;;;;5.18;2.60;;;15.90;99.90;;;;;;5077537;28;20040;-77
2022/08/09 05:44:16;;;;;;;3.97;2.97;;;16.00;99.90;;;;;;5078100;28;20130;-78
2022/08/09 05:46:41;;;;;;;3.78;2.53;;;16.00;99.90;;;;;;5077947;28;20060;-78
2022/08/09 05:49:07;;;;;;;2.92;2.15;;;16.10;99.90;;;;;;5059577;28;20125;-78
2022/08/09 05:51:32;;;;;;;3.30;2.17;;;16.10;99.90;;;;;;5060205;28;20875;-78
2022/08/09 05:53:58;;;;;;;3.35;2.38;;;16.20;99.90;;;;;;5077256;28;20044;-78
2022/08/09 05:56:25;;;;;;;4.05;2.95;;;16.20;99.90;;;;;;5059984;28;20376;-78
2022/08/09 05:58:56;;;;;;;3.30;2.45;;;16.30;99.90;;;;;;5059911;28;20048;-78
2022/08/09 06:01:23;;;;;;;2.65;2.25;;;16.30;99.90;;;;;;5077958;28;20196;-79
2022/08/09 06:03:48;;;;;;;4.82;2.15;;;16.30;99.90;;;;;;5077547;28;20442;-78
2022/08/09 06:06:15;;;;;;;3.42;2.72;;;16.40;99.90;;;;;;5060126;28;20439;-78
2022/08/09 06:08:40;;;;;;;5.47;4.20;;;16.40;99.90;;;;;;5077231;28;20051;-78
2022/08/09 06:11:07;;;;;;;8.60;2.40;;;16.40;99.90;;;;;;5077798;28;20040;-77
2022/08/09 06:13:32;;;;;;;4.55;2.83;;;16.50;99.90;;;;;;5077709;28;20083;-78
2022/08/09 06:15:58;;;;;;;2.55;2.30;;;16.50;99.90;;;;;;5078165;28;20064;-77
2022/08/09 06:18:24;;;;;;;4.88;3.20;;;16.50;99.90;;;;;;5077794;28;20504;-77
2022/08/09 06:20:50;;;;;;;3.00;1.75;;;16.50;99.90;;;;;;5059741;28;20052;-78
2022/08/09 06:23:15;;;;;;;5.18;2.42;;;16.60;99.90;;;;;;5077240;28;20085;-78
2022/08/09 06:25:41;;;;;;;3.35;2.55;;;16.70;99.90;;;;;;5077402;28;20390;-78
2022/08/09 06:28:07;;;;;;;4.80;2.78;;;16.70;99.90;;;;;;5078100;28;20517;-77
2022/08/09 06:30:34;;;;;;;2.63;2.40;;;16.70;99.90;;;;;;5077533;28;20079;-78
2022/08/09 06:32:59;;;;;;;3.90;2.28;;;16.70;99.90;;;;;;5077236;28;20044;-78
2022/08/09 06:35:25;;;;;;;6.82;2.65;;;16.70;99.90;;;;;;5060453;28;20051;-78
2022/08/09 06:37:50;;;;;;;2.67;2.33;;;16.80;99.90;;;;;;5076751;28;20036;-78
2022/08/09 06:40:16;;;;;;;3.40;2.65;;;16.90;99.90;;;;;;5077692;28;20039;-77
2022/08/09 06:42:42;;;;;;;5.97;3.05;;;16.90;99.90;;;;;;5077667;28;20040;-77
2022/08/09 06:45:08;;;;;;;3.13;2.20;;;16.90;99.90;;;;;;5062527;28;20047;-78
2022/08/09 06:47:33;;;;;;;2.88;2.38;;;16.90;99.90;;;;;;5063029;28;20398;-78
2022/08/09 06:49:59;;;;;;;7.90;1.95;;;17.00;99.90;;;;;;5081675;28;20170;-78
2022/08/09 06:52:25;;;;;;;2.17;1.98;;;17.00;99.90;;;;;;5063301;28;20394;-78
2022/08/09 06:54:51;;;;;;;5.40;3.13;;;17.10;99.90;;;;;;5080243;28;20048;-78
2022/08/09 06:57:16;;;;;;;1.98;1.15;;;17.10;99.90;;;;;;5081554;28;20178;-77
2022/08/09 06:59:42;;;;;;;1.88;1.27;;;17.10;99.90;;;;;;5081013;28;20446;-78
2022/08/09 07:02:08;;;;;;;3.35;1.88;;;17.20;99.90;;;;;;5062739;28;20374;-78
2022/08/09 07:04:33;;;;;;;2.28;1.95;;;17.20;99.90;;;;;;5081451;28;20076;-77
2022/08/09 07:06:59;;;;;;;2.72;1.27;;;17.20;99.90;;;;;;5081755;28;20499;-77
2022/08/09 07:09:24;;;;;;;3.30;1.77;;;17.30;99.90;;;;;;5079985;28;20509;-78
2022/08/09 07:11:50;;;;;;;13.02;2.20;;;17.30;99.90;;;;;;5081468;28;20048;-77
2022/08/09 07:14:16;;;;;;;5.13;2.15;;;17.30;99.90;;;;;;5081192;28;20054;-77
2022/08/09 07:16:45;;;;;;;2.47;1.52;;;17.40;99.90;;;;;;5080409;28;20115;-78
2022/08/09 07:19:14;;;;;;;1.73;1.63;;;17.40;99.90;;;;;;5081354;28;20119;-78
2022/08/09 07:21:41;;;;;;;3.10;2.20;;;17.50;99.90;;;;;;5080411;28;20042;-78
2022/08/09 07:24:07;;;;;;;2.75;1.98;;;17.50;99.90;;;;;;5079882;28;20102;-78
2022/08/09 07:26:33;;;;;;;3.17;1.92;;;17.60;99.90;;;;;;5080440;28;20039;-78
2022/08/09 07:28:59;;;;;;;3.22;2.15;;;17.60;99.90;;;;;;5062557;28;20044;-78
2022/08/09 07:31:24;;;;;;;2.05;1.48;;;17.60;99.90;;;;;;5062628;28;20391;-78
2022/08/09 07:33:50;;;;;;;3.00;1.75;;;17.70;99.90;;;;;;5062137;28;20040;-78
2022/08/09 07:36:16;;;;;;;2.40;1.75;;;17.70;99.90;;;;;;5080383;28;20043;-78
2022/08/09 07:38:41;;;;;;;1.60;1.50;;;17.70;99.90;;;;;;5079688;28;20511;-78
2022/08/09 07:41:07;;;;;;;1.98;1.70;;;17.70;99.90;;;;;;5080885;28;20058;-78
2022/08/09 07:43:33;;;;;;;2.33;2.13;;;17.80;99.90;;;;;;5080508;28;20490;-78
2022/08/09 07:45:59;;;;;;;2.92;1.20;;;17.90;99.90;;;;;;5080736;28;20044;-78
2022/08/09 07:48:25;;;;;;;2.40;1.52;;;17.90;99.90;;;;;;5062526;28;20050;-78
2022/08/09 07:50:50;;;;;;;2.60;1.63;;;18.00;99.90;;;;;;5079800;28;20039;-78
2022/08/09 07:53:16;;;;;;;2.08;1.35;;;18.00;99.90;;;;;;5079154;28;20040;-79
2022/08/09 07:55:42;;;;;;;2.13;1.13;;;18.10;99.90;;;;;;5079766;28;20032;-78
2022/08/09 07:58:07;;;;;;;2.67;1.52;;;18.20;99.90;;;;;;5080106;28;20435;-78
2022/08/09 08:00:33;;;;;;;2.38;1.40;;;18.20;99.90;;;;;;5062468;28;20590;-78
2022/08/09 08:03:00;;;;;;;1.80;1.13;;;18.30;99.90;;;;;;5061951;28;20048;-78
2022/08/09 08:05:26;;;;;;;2.83;1.27;;;18.30;99.90;;;;;;5079660;28;20481;-78
2022/08/09 08:07:53;;;;;;;1.15;1.05;;;18.30;99.90;;;;;;5061360;28;20052;-78
2022/08/09 08:10:20;;;;;;;3.75;1.20;;;18.30;99.90;;;;;;5079726;28;20486;-78
2022/08/09 08:12:46;;;;;;;1.60;0.93;;;18.30;99.90;;;;;;5079518;28;20055;-78
2022/08/09 08:15:17;;;;;;;1.55;1.23;;;18.40;99.90;;;;;;5061378;28;20119;-78
2022/08/09 08:17:47;;;;;;;1.85;1.25;;;18.40;99.90;;;;;;5061318;28;20036;-78
2022/08/09 08:20:13;;;;;;;1.30;1.20;;;18.50;99.90;;;;;;5079614;28;20133;-78
2022/08/09 08:22:39;;;;;;;1.27;1.17;;;18.60;99.90;;;;;;5060751;28;20653;-78
2022/08/09 08:25:05;;;;;;;1.80;1.63;;;18.60;99.90;;;;;;5061872;28;20468;-78
2022/08/09 08:27:31;;;;;;;0.80;0.80;;;18.60;99.90;;;;;;5079684;28;20491;-78
2022/08/09 08:29:57;;;;;;;2.22;1.70;;;18.60;99.90;;;;;;5079603;28;20521;-78
2022/08/09 08:32:23;;;;;;;1.38;1.17;;;18.60;99.90;;;;;;5079764;28;20130;-78
2022/08/09 08:34:48;;;;;;;1.27;1.17;;;18.70;99.90;;;;;;5078849;28;20232;-78
2022/08/09 08:37:14;;;;;;;1.90;1.20;;;18.70;99.90;;;;;;5079341;28;20147;-78
2022/08/09 08:39:39;;;;;;;2.05;1.10;;;18.70;99.90;;;;;;5059881;28;20123;-78
2022/08/09 08:42:05;;;;;;;1.23;1.13;;;18.70;99.90;;;;;;5079015;28;20605;-78
2022/08/09 08:44:35;;;;;;;1.60;1.10;;;18.60;99.90;;;;;;5079262;28;20039;-78
2022/08/09 08:47:01;;;;;;;1.02;0.95;;;18.60;99.90;;;;;;5061176;28;20066;-79
2022/08/09 08:49:28;;;;;;;1.75;1.05;;;18.60;99.90;;;;;;5078906;28;20711;-79
2022/08/09 08:51:55;;;;;;;1.40;1.30;;;18.50;99.90;;;;;;5079012;28;20722;-78
2022/08/09 08:54:20;;;;;;;1.13;1.10;;;18.60;99.90;;;;;;5059946;28;20536;-78
2022/08/09 08:56:46;;;;;;;5.35;2.22;;;18.50;99.90;;;;;;5078780;28;20064;-79
2022/08/09 08:59:13;;;;;;;2.20;1.20;;;18.60;99.90;;;;;;5060860;28;20047;-78
2022/08/09 09:01:43;;;;;;;0.98;0.95;;;18.60;99.90;;;;;;5060948;28;20054;-78
2022/08/09 09:04:11;;;;;;;0.82;0.80;;;18.80;99.90;;;;;;5079038;28;20525;-78
2022/08/09 09:06:39;;;;;;;1.13;1.02;;;18.90;99.90;;;;;;5078847;28;20323;-78
2022/08/09 09:09:06;;;;;;;3.25;1.33;;;19.00;99.90;;;;;;5077120;28;20051;-78
2022/08/09 09:11:34;;;;;;;1.10;1.00;;;19.10;99.90;;;;;;5078580;28;20046;-78
2022/08/09 09:14:08;;;;;;;1.02;0.75;;;19.20;99.90;;;;;;5078491;28;20045;-78
2022/08/09 09:16:34;;;;;;;1.15;0.90;;;19.30;99.90;;;;;;5079050;28;20402;-78
2022/08/09 09:19:05;;;;;;;2.70;0.95;;;19.30;99.90;;;;;;5060364;28;20044;-78
2022/08/09 09:21:31;;;;;;;2.45;1.50;;;19.30;99.90;;;;;;5060108;28;20050;-78
2022/08/09 09:24:06;;;;;;;2.15;0.90;;;19.30;99.90;;;;;;5059557;28;20036;-78
2022/08/09 09:26:33;;;;;;;1.27;1.17;;;19.30;99.90;;;;;;5078387;28;20149;-78
2022/08/09 09:29:00;;;;;;;0.93;0.90;;;19.40;99.90;;;;;;5043187;28;20105;-78
2022/08/09 09:31:27;;;;;;;1.88;1.48;;;19.40;99.90;;;;;;5078595;28;20068;-78
2022/08/09 09:34:12;;;;;;;1.75;1.20;;;19.40;99.90;;;;;;5078455;28;20115;-78
2022/08/09 09:36:41;;;;;;;3.08;1.67;;;19.40;99.90;;;;;;5060816;28;20700;-78
2022/08/09 09:39:08;;;;;;;2.08;1.23;;;19.30;99.90;;;;;;5078005;28;20331;-78
2022/08/09 09:41:34;;;;;;;1.02;0.93;;;19.30;99.90;;;;;;5060010;28;20048;-78
2022/08/09 09:44:05;;;;;;;0.60;0.60;;;19.30;99.90;;;;;;5078069;28;20092;-79
2022/08/09 09:46:36;;;;;;;3.30;0.98;;;19.40;99.90;;;;;;5077858;28;20036;-79
2022/08/09 09:49:08;;;;;;;1.10;0.90;;;19.50;99.90;;;;;;5078179;28;20036;-79
2022/08/09 09:51:35;;;;;;;2.58;1.10;;;19.70;99.90;;;;;;5060636;28;20123;-79
2022/08/09 09:54:05;;;;;;;4.82;0.90;;;19.80;99.90;;;;;;5077083;28;20044;-79
2022/08/09 09:56:33;;;;;;;0.68;0.65;;;19.90;99.90;;;;;;5077986;28;20494;-79
2022/08/09 09:58:59;;;;;;;2.22;0.93;;;20.00;99.90;;;;;;5077497;28;20553;-78
2022/08/09 10:01:25;;;;;;;1.27;1.02;;;20.10;99.90;;;;;;5060135;28;20066;-78
2022/08/09 10:03:52;;;;;;;4.40;1.20;;;20.10;99.90;;;;;;5077935;28;20533;-78
2022/08/09 10:06:18;;;;;;;1.83;0.98;;;20.10;99.90;;;;;;5077887;28;20528;-79
2022/08/09 10:08:46;;;;;;;0.80;0.80;;;20.10;99.90;;;;;;5077432;28;20521;-79
2022/08/09 10:11:20;;;;;;;0.80;0.80;;;20.10;99.90;;;;;;5077872;28;20043;-79
2022/08/09 10:13:47;;;;;;;1.10;1.00;;;20.00;99.90;;;;;;5077230;28;20131;-78
2022/08/09 10:16:13;;;;;;;3.50;1.15;;;20.10;99.90;;;;;;5059723;28;20108;-78
2022/08/09 10:18:49;;;;;;;9.02;1.42;;;20.10;99.90;;;;;;5079048;28;20044;-78
2022/08/09 10:21:15;;;;;;;1.33;1.23;;;20.10;99.90;;;;;;5081997;28;20668;-79
2022/08/09 10:23:42;;;;;;;1.05;1.05;;;20.10;99.90;;;;;;5081453;28;20131;-79
2022/08/09 10:26:08;;;;;;;2.13;0.88;;;20.10;99.90;;;;;;5081477;28;20543;-79
2022/08/09 10:28:35;;;;;;;1.38;0.98;;;20.10;99.90;;;;;;5063450;28;20044;-78
2022/08/09 10:31:01;;;;;;;2.33;1.38;;;20.10;99.90;;;;;;5063632;28;20310;-79
2022/08/09 10:33:27;;;;;;;0.80;0.80;;;20.10;99.90;;;;;;5081344;28;20533;-79
2022/08/09 10:35:53;;;;;;;1.08;0.98;;;20.10;99.90;;;;;;5081946;28;20622;-78
2022/08/09 10:38:19;;;;;;;6.00;0.77;;;20.10;99.90;;;;;;5080725;28;20123;-78
2022/08/09 10:40:45;;;;;;;0.90;0.90;;;20.10;99.90;;;;;;5081233;28;20120;-79
2022/08/09 10:43:11;;;;;;;1.10;0.80;;;20.20;99.90;;;;;;5063664;28;20048;-79
2022/08/09 10:45:43;;;;;;;1.20;0.93;;;20.20;99.90;;;;;;5082074;28;20109;-79
2022/08/09 10:48:30;;;;;;;1.50;0.93;;;20.20;99.90;;;;;;5081701;28;20490;-79
2022/08/09 10:51:13;;;;;;;0.70;0.70;;;20.30;99.90;;;;;;5063231;28;20066;-79
2022/08/09 10:54:06;;;;;;;0.68;0.60;;;20.30;99.90;;;;;;5081160;28;20223;-79
2022/08/09 10:56:35;;;;;;;7.63;1.02;;;20.30;99.90;;;;;;5054564;28;20347;-79
2022/08/09 10:59:21;;;;;;;0.73;0.57;;;20.30;99.90;;;;;;5081292;28;20052;-79
2022/08/09 11:01:50;;;;;;;0.95;0.93;;;20.30;99.90;;;;;;5080319;28;20340;-79
2022/08/09 11:04:24;;;;;;;0.77;0.65;;;20.30;99.90;;;;;;5081102;28;20344;-79
2022/08/09 11:06:59;;;;;;;0.70;0.70;;;20.40;99.90;;;;;;5081044;28;20386;-79
2022/08/09 11:09:37;;;;;;;0.77;0.60;;;20.50;99.90;;;;;;5081459;28;20079;-79
2022/08/09 11:12:23;;;;;;;1.00;0.90;;;20.60;99.90;;;;;;5080861;28;20486;-79
2022/08/09 11:15:00;;;;;;;0.68;0.68;;;20.70;99.90;;;;;;5062676;28;20533;-79
2022/08/09 11:17:25;;;;;;;2.53;1.05;;;20.80;99.90;;;;;;5062182;28;20046;-79
2022/08/09 11:19:54;;;;;;;1.02;0.90;;;20.90;99.90;;;;;;5062628;28;20134;-79
2022/08/09 11:22:44;;;;;;;0.68;0.68;;;21.00;99.90;;;;;;5079692;28;20036;-79
2022/08/09 11:25:14;;;;;;;1.02;0.80;;;21.10;99.90;;;;;;5080458;28;20043;-79
2022/08/09 11:27:40;;;;;;;0.68;0.55;;;21.20;99.90;;;;;;5062595;28;20044;-79
2022/08/09 11:30:14;;;;;;;0.70;0.70;;;21.30;99.90;;;;;;5079905;28;20747;-79
2022/08/09 11:32:41;;;;;;;1.17;0.60;;;21.20;99.90;;;;;;5081103;28;20062;-79
2022/08/09 11:35:26;;;;;;;1.25;0.93;;;21.30;99.90;;;;;;5080501;28;20098;-79
2022/08/09 11:37:55;;;;;;;0.57;0.57;;;21.30;99.90;;;;;;5061851;28;20043;-79
2022/08/09 11:40:30;;;;;;;0.68;0.60;;;21.30;99.90;;;;;;5080382;28;20412;-79
2022/08/09 11:42:58;;;;;;;0.63;0.63;;;21.30;99.90;;;;;;5080730;28;20459;-79
2022/08/09 11:45:28;;;;;;;0.73;0.73;;;21.40;99.90;;;;;;5044970;28;20032;-79
2022/08/09 11:48:14;;;;;;;0.65;0.60;;;21.40;99.90;;;;;;5080270;28;21059;-79
2022/08/09 11:51:00;;;;;;;0.40;0.40;;;21.40;99.90;;;;;;5061862;28;20040;-79
2022/08/09 11:53:31;;;;;;;0.50;0.45;;;21.40;99.90;;;;;;5079428;28;20044;-79
2022/08/09 11:55:58;;;;;;;1.98;0.70;;;21.30;99.90;;;;;;5061743;28;20047;-79
2022/08/09 11:58:27;;;;;;;0.73;0.63;;;21.30;99.90;;;;;;5080107;28;20047;-79
2022/08/09 12:01:07;;;;;;;0.57;0.52;;;21.40;99.90;;;;;;5079495;28;20487;-79
2022/08/09 12:03:33;;;;;;;0.68;0.57;;;21.40;99.90;;;;;;5079746;28;20040;-79
2022/08/09 12:06:00;;;;;;;2.80;0.70;;;21.40;99.90;;;;;;5061889;28;20071;-79
2022/08/09 12:08:28;;;;;;;0.50;0.50;;;21.40;99.90;;;;;;5079045;28;20185;-79
2022/08/09 12:10:56;;;;;;;0.40;0.40;;;21.40;99.90;;;;;;5061982;28;20123;-79
2022/08/09 12:13:38;;;;;;;0.60;0.60;;;21.40;99.90;;;;;;5079388;28;20056;-79
2022/08/09 12:16:09;;;;;;;0.43;0.43;;;21.40;99.90;;;;;;5080067;28;20225;-79
2022/08/09 12:18:38;;;;;;;0.80;0.80;;;21.50;99.90;;;;;;5079751;28;20338;-79
2022/08/09 12:21:06;;;;;;;1.17;0.52;;;21.50;99.90;;;;;;5079953;28;20094;-79
2022/08/09 12:23:33;;;;;;;0.22;0.22;;;21.50;99.90;;;;;;5060613;28;20067;-79
2022/08/09 12:26:01;;;;;;;0.50;0.50;;;21.60;99.90;;;;;;5078775;28;20046;-78
2022/08/09 12:28:27;;;;;;;1.85;0.35;;;21.60;99.90;;;;;;5079551;28;20541;-79
2022/08/09 12:30:55;;;;;;;0.65;0.65;;;21.60;99.90;;;;;;5079290;28;20040;-78
2022/08/09 12:33:23;;;;;;;0.40;0.40;;;21.60;99.90;;;;;;5061043;28;20123;-79
2022/08/09 12:36:01;;;;;;;0.68;0.68;;;21.60;99.90;;;;;;5079441;28;20054;-79
2022/08/09 12:38:29;;;;;;;0.70;0.70;;;21.60;99.90;;;;;;5078510;28;20078;-79
2022/08/09 12:40:56;;;;;;;0.98;0.82;;;21.60;99.90;;;;;;5079423;28;20040;-79
2022/08/09 12:43:25;;;;;;;1.13;0.63;;;21.60;99.90;;;;;;5079057;28;20086;-79
2022/08/09 12:45:52;;;;;;;1.27;0.70;;;21.60;99.90;;;;;;5078843;28;20041;-79
2022/08/09 12:48:19;;;;;;;0.68;0.65;;;21.60;99.90;;;;;;5061005;28;20486;-79
2022/08/09 12:50:45;;;;;;;0.85;0.63;;;21.60;99.90;;;;;;5061156;28;20114;-79
2022/08/09 12:53:29;;;;;;;0.55;0.55;;;21.60;99.90;;;;;;5077800;28;20055;-79
2022/08/09 12:56:18;;;;;;;1.02;0.57;;;21.60;99.90;;;;;;5061027;28;20150;-79